createdAt,value
2019-04-21T00:01:30.662Z,99845.77
2019-04-21T00:06:56.893Z,99842.66
2019-04-21T00:12:12.001Z,99837.95
2019-04-21T00:17:00.636Z,99836.25
2019-04-21T00:22:14.189Z,99833.45
2019-04-21T00:27:28.353Z,99830.06
2019-04-21T00:32:33.391Z,99836.72
2019-04-21T00:37:49.270Z,99820.00
2019-04-21T00:42:58.851Z,99819.73
2019-04-21T00:48:03.882Z,99821.32
2019-04-21T00:53:37.895Z,99813.37
2019-04-21T00:58:53.230Z,99812.33
2019-04-21T01:03:46.229Z,99813.66
2019-04-21T01:08:46.333Z,99812.08
2019-04-21T01:14:05.225Z,99813.42
2019-04-21T01:19:05.038Z,99812.08
2019-04-21T01:23:55.675Z,99814.22
2019-04-21T01:29:22.812Z,99813.91
2019-04-21T01:34:33.102Z,99813.34
2019-04-21T01:39:41.149Z,99804.89
2019-04-21T01:44:48.504Z,99805.12
2019-04-21T01:49:43.198Z,99801.59
2019-04-21T01:55:32.340Z,99795.81
2019-04-21T02:00:39.389Z,99792.00
2019-04-21T02:05:59.654Z,99785.03
2019-04-21T02:11:07.618Z,99793.86
2019-04-21T02:16:12.472Z,99798.00
2019-04-21T02:21:04.273Z,99790.25
2019-04-21T02:26:27.189Z,99795.94
2019-04-21T02:31:50.425Z,99786.61
2019-04-21T02:37:05.513Z,99783.51
2019-04-21T02:41:55.779Z,99780.64
2019-04-21T02:46:54.517Z,99785.78
2019-04-21T02:52:20.148Z,99779.48
2019-04-21T02:57:18.446Z,99779.47
2019-04-21T03:03:05.721Z,99772.50
2019-04-21T03:08:03.795Z,99762.19
2019-04-21T03:13:26.700Z,99759.61
2019-04-21T03:18:24.250Z,99763.20
2019-04-21T03:23:38.173Z,99756.33
2019-04-21T03:28:39.683Z,99754.98
2019-04-21T03:38:45.387Z,99746.56
2019-04-21T03:43:58.845Z,99721.63
2019-04-21T03:49:16.413Z,99740.50
2019-04-21T03:54:22.345Z,99739.14
2019-04-21T03:59:17.791Z,99743.63
2019-04-21T04:04:52.736Z,99738.14
2019-04-21T04:10:08.076Z,99739.45
2019-04-21T04:15:15.071Z,99730.20
2019-04-21T04:20:22.443Z,99723.25
2019-04-21T04:25:25.225Z,99733.34
2019-04-21T04:30:31.309Z,99729.40
2019-04-21T04:35:52.903Z,99727.30
2019-04-21T04:40:55.977Z,99723.64
2019-04-21T04:45:59.980Z,99715.23
2019-04-21T05:01:45.015Z,99708.09
2019-04-21T05:06:42.709Z,99706.61
2019-04-21T05:21:43.936Z,99710.87
2019-04-21T05:26:51.960Z,99700.08
2019-04-21T05:32:17.206Z,99709.20
2019-04-21T05:37:43.224Z,99705.73
2019-04-21T05:42:51.282Z,99702.08
2019-04-21T05:48:39.807Z,99695.94
2019-04-21T05:53:35.954Z,99694.42
2019-04-21T05:58:46.270Z,99681.76
2019-04-21T06:03:54.839Z,99680.64
2019-04-21T06:08:52.588Z,99680.12
2019-04-21T06:14:25.387Z,99685.97
2019-04-21T06:19:15.058Z,99674.91
2019-04-21T06:24:16.764Z,99673.66
2019-04-21T06:29:26.531Z,99666.13
2019-04-21T06:34:41.423Z,99667.78
2019-04-21T06:39:52.593Z,99670.20
2019-04-21T06:44:56.095Z,99669.86
2019-04-21T06:49:56.804Z,99666.44
2019-04-21T06:55:12.582Z,99674.42
2019-04-21T07:00:07.463Z,99672.20
2019-04-21T07:05:13.579Z,99662.55
2019-04-21T07:15:30.393Z,99668.14
2019-04-21T07:20:37.947Z,99660.24
2019-04-21T07:25:48.322Z,99660.16
2019-04-21T07:30:59.378Z,99666.16
2019-04-21T07:36:06.326Z,99648.89
2019-04-21T07:41:02.567Z,99655.54
2019-04-21T07:46:10.134Z,99646.92
2019-04-21T07:51:43.986Z,99646.69
2019-04-21T07:56:32.986Z,99646.39
2019-04-21T08:01:55.062Z,99643.95
2019-04-21T08:07:02.786Z,99637.59
2019-04-21T08:12:04.331Z,99632.38
2019-04-21T08:17:16.217Z,99632.48
2019-04-21T08:22:30.730Z,99633.76
2019-04-21T08:27:35.171Z,99636.20
2019-04-21T08:33:00.572Z,99623.48
2019-04-21T08:37:55.202Z,99613.18
2019-04-21T08:43:04.104Z,99621.60
2019-04-21T08:48:18.280Z,99610.60
2019-04-21T08:53:20.843Z,99616.06
2019-04-21T08:58:54.152Z,99613.31
2019-04-21T09:03:56.777Z,99598.06
2019-04-21T09:09:08.182Z,99594.72
2019-04-21T09:14:10.384Z,99603.58
2019-04-21T09:19:20.226Z,99583.73
2019-04-21T09:24:22.232Z,99587.70
2019-04-21T09:29:22.125Z,99578.80
2019-04-21T09:34:24.875Z,99564.73
2019-04-21T09:39:29.678Z,99572.23
2019-04-21T09:44:38.673Z,99567.25
2019-04-21T09:49:43.201Z,99560.29
2019-04-21T09:54:58.670Z,99554.08
2019-04-21T10:00:05.033Z,99567.27
2019-04-21T10:05:05.348Z,99547.22
2019-04-21T10:10:12.803Z,99539.00
2019-04-21T10:15:19.628Z,99536.87
2019-04-21T10:20:26.764Z,99523.91
2019-04-21T10:25:32.554Z,99527.15
2019-04-21T10:30:38.541Z,99515.71
2019-04-21T10:35:45.025Z,99506.55
2019-04-21T10:40:51.588Z,99502.33
2019-04-21T10:45:57.347Z,99505.80
2019-04-21T10:51:03.220Z,99496.56
2019-04-21T10:56:18.069Z,99490.16
2019-04-21T11:01:21.150Z,99491.77
2019-04-21T11:06:26.627Z,99482.28
2019-04-21T11:11:32.254Z,99471.55
2019-04-21T11:16:37.748Z,99466.72
2019-04-21T11:21:43.143Z,99457.64
2019-04-21T11:26:49.726Z,99454.02
2019-04-21T11:31:56.889Z,99447.92
2019-04-21T11:37:03.928Z,99435.02
2019-04-21T11:42:17.697Z,99433.38
2019-04-21T11:47:28.112Z,99427.95
2019-04-21T11:52:34.732Z,99426.97
2019-04-21T11:57:44.923Z,99424.16
2019-04-21T12:02:48.396Z,99416.45
2019-04-21T12:07:53.719Z,99410.64
2019-04-21T12:12:59.263Z,99401.84
2019-04-21T12:18:06.024Z,99393.84
2019-04-21T12:23:12.199Z,99387.04
2019-04-21T12:28:19.589Z,99389.92
2019-04-21T12:33:38.046Z,99381.73
2019-04-21T12:38:52.176Z,99374.31
2019-04-21T12:43:52.755Z,99370.06
2019-04-21T12:48:59.888Z,99373.84
2019-04-21T12:54:06.007Z,99358.45
2019-04-21T12:59:13.434Z,99349.31
2019-04-21T13:04:20.278Z,99345.87
2019-04-21T13:09:32.120Z,99344.19
2019-04-21T13:14:39.928Z,99330.59
2019-04-21T13:19:45.774Z,99324.25
2019-04-21T13:24:51.803Z,99328.81
2019-04-21T13:29:57.768Z,99315.39
2019-04-21T13:35:05.253Z,99308.91
2019-04-21T13:40:50.095Z,99306.19
2019-04-21T13:45:42.058Z,99295.20
2019-04-21T13:50:49.068Z,99299.02
2019-04-21T13:55:56.319Z,99287.23
2019-04-21T14:01:03.401Z,99279.91
2019-04-21T14:06:09.371Z,99271.20
2019-04-21T14:11:25.124Z,99262.02
2019-04-21T14:16:32.005Z,99265.02
2019-04-21T14:21:41.191Z,99254.77
2019-04-21T14:26:47.876Z,99253.41
2019-04-21T14:31:53.538Z,99251.36
2019-04-21T14:36:59.612Z,99233.94
2019-04-21T14:42:06.365Z,99237.16
2019-04-21T14:47:37.977Z,99234.70
2019-04-21T14:52:44.911Z,99227.67
2019-04-21T14:57:51.518Z,99228.25
2019-04-21T15:02:57.912Z,99222.45
2019-04-21T15:08:03.466Z,99222.70
2019-04-21T15:13:10.057Z,99217.53
2019-04-21T15:18:16.777Z,99207.14
2019-04-21T15:23:26.371Z,99202.17
2019-04-21T15:28:33.919Z,99199.58
2019-04-21T15:33:39.205Z,99202.70
2019-04-21T15:38:45.811Z,99197.88
2019-04-21T15:43:51.255Z,99182.98
2019-04-21T15:48:57.133Z,99190.59
2019-04-21T15:54:04.797Z,99180.59
2019-04-21T15:59:38.519Z,99176.95
2019-04-21T16:04:46.535Z,99174.95
2019-04-21T16:09:52.440Z,99164.93
2019-04-21T16:14:58.788Z,99160.58
2019-04-21T16:20:12.223Z,99150.19
2019-04-21T16:25:21.038Z,99152.94
2019-04-21T16:30:29.030Z,99145.97
2019-04-21T16:35:36.147Z,99151.43
2019-04-21T16:40:52.594Z,99146.09
2019-04-21T16:45:52.875Z,99140.89
2019-04-21T16:50:59.517Z,99140.72
2019-04-21T16:56:29.030Z,99140.61
2019-04-21T17:01:34.550Z,99127.78
2019-04-21T17:06:42.858Z,99131.25
2019-04-21T17:11:57.451Z,99117.28
2019-04-21T17:17:19.089Z,99118.63
2019-04-21T17:22:05.869Z,99111.94
2019-04-21T17:27:11.462Z,99110.33
2019-04-21T17:32:18.377Z,99118.27
2019-04-21T17:37:26.784Z,99111.34
2019-04-21T17:42:39.763Z,99112.44
2019-04-21T17:47:49.800Z,99108.46
2019-04-21T17:52:59.028Z,99101.83
2019-04-21T17:58:16.010Z,99103.64
2019-04-21T18:03:39.010Z,99102.19
2019-04-21T18:08:36.397Z,99105.23
2019-04-21T18:13:26.872Z,99104.44
2019-04-21T18:18:34.900Z,99107.92
2019-04-21T18:24:05.709Z,99109.44
2019-04-21T18:29:05.420Z,99115.00
2019-04-21T18:34:32.327Z,99117.13
2019-04-21T18:39:55.905Z,99116.70
2019-04-21T18:50:30.323Z,99117.51
2019-04-21T18:55:41.481Z,99115.19
2019-04-21T19:00:44.153Z,99117.58
2019-04-21T19:05:59.440Z,99122.98
2019-04-21T19:11:19.641Z,99117.47
2019-04-21T19:16:33.095Z,99126.35
2019-04-21T19:21:31.159Z,99123.94
2019-04-21T19:26:54.658Z,99127.73
2019-04-21T19:31:54.740Z,99125.95
2019-04-21T19:36:49.377Z,99124.74
2019-04-21T19:42:00.519Z,99125.30
2019-04-21T19:47:19.816Z,99118.83
2019-04-21T19:52:20.383Z,99122.53
2019-04-21T19:57:18.795Z,99117.36
2019-04-21T20:02:24.786Z,99112.62
2019-04-21T20:07:44.448Z,99116.20
2019-04-21T20:12:58.385Z,99113.14
2019-04-21T20:18:02.043Z,99119.81
2019-04-21T20:22:56.055Z,99111.80
2019-04-21T20:28:09.610Z,99114.20
2019-04-21T20:38:31.305Z,99112.77
2019-04-21T20:43:47.173Z,99112.36
2019-04-21T20:48:52.845Z,99113.98
2019-04-21T20:53:56.583Z,99111.63
2019-04-21T20:59:07.738Z,99119.87
2019-04-21T21:04:12.104Z,99116.53
2019-04-21T21:09:17.964Z,99124.92
2019-04-21T21:14:29.288Z,99124.50
2019-04-21T21:19:42.447Z,99123.94
2019-04-21T21:24:46.408Z,99122.41
2019-04-21T21:29:50.230Z,99123.27
2019-04-21T21:35:06.166Z,99116.48
2019-04-21T21:40:09.470Z,99113.13
2019-04-21T21:45:04.858Z,99113.20
2019-04-21T21:50:17.183Z,99112.91
2019-04-21T21:55:15.838Z,99108.66
2019-04-21T22:00:26.331Z,99108.59
2019-04-21T22:05:45.571Z,99098.22
2019-04-21T22:10:41.227Z,99097.03
2019-04-21T22:15:58.070Z,99095.75
2019-04-21T22:21:10.274Z,99091.05
2019-04-21T22:26:07.324Z,99094.02
2019-04-21T22:31:22.428Z,99092.42
2019-04-21T22:36:36.615Z,99094.61
2019-04-21T22:41:40.518Z,99090.89
2019-04-21T22:46:52.087Z,99096.11
2019-04-21T22:51:51.848Z,99092.42
2019-04-21T22:57:05.239Z,99091.84
2019-04-21T23:02:13.629Z,99091.09
2019-04-21T23:07:17.277Z,99089.41
2019-04-21T23:12:28.158Z,99082.93
2019-04-21T23:17:53.157Z,99075.92
2019-04-21T23:23:05.162Z,99080.82
2019-04-21T23:28:09.248Z,99084.31
2019-04-21T23:33:06.562Z,99077.64
2019-04-21T23:38:10.653Z,99074.75
2019-04-21T23:43:23.877Z,99077.88
2019-04-21T23:48:39.101Z,99081.97
2019-04-21T23:53:39.507Z,99076.19
2019-04-21T23:58:52.049Z,99077.59
